createdAt,value
2022-11-05T00:01:42.896Z,7.40
2022-11-05T00:04:31.131Z,7.40
2022-11-05T00:07:20.345Z,7.50
2022-11-05T00:09:47.503Z,7.60
2022-11-05T00:12:33.033Z,7.70
2022-11-05T00:15:21.216Z,7.80
2022-11-05T00:17:57.359Z,7.90
2022-11-05T00:20:25.579Z,8.00
2022-11-05T00:23:24.193Z,8.00
2022-11-05T00:26:22.834Z,8.10
2022-11-05T00:29:06.828Z,8.10
2022-11-05T00:31:45.019Z,8.10
2022-11-05T00:34:24.844Z,8.10
2022-11-05T00:37:10.008Z,8.20
2022-11-05T00:39:46.727Z,8.10
2022-11-05T00:42:32.930Z,8.10
2022-11-05T00:45:06.684Z,8.10
2022-11-05T00:47:55.847Z,8.00
2022-11-05T00:50:27.970Z,7.90
2022-11-05T00:53:03.745Z,7.90
2022-11-05T00:55:40.826Z,7.80
2022-11-05T00:58:09.874Z,7.70
2022-11-05T01:00:43.795Z,7.70
2022-11-05T01:03:19.262Z,7.60
2022-11-05T01:05:52.909Z,7.50
2022-11-05T01:08:33.499Z,7.50
2022-11-05T01:11:40.104Z,7.50
2022-11-05T01:14:26.657Z,7.50
2022-11-05T01:17:14.371Z,7.40
2022-11-05T01:19:56.974Z,7.30
2022-11-05T01:22:36.511Z,7.20
2022-11-05T01:25:10.561Z,7.20
2022-11-05T01:27:47.939Z,7.20
2022-11-05T01:30:15.520Z,7.10
2022-11-05T01:32:48.226Z,7.10
2022-11-05T01:35:20.482Z,7.00
2022-11-05T01:37:50.054Z,6.90
2022-11-05T01:40:22.815Z,6.90
2022-11-05T01:42:50.174Z,6.90
2022-11-05T01:45:24.502Z,6.80
2022-11-05T01:47:53.868Z,6.80
2022-11-05T01:50:29.917Z,6.80
2022-11-05T01:53:06.317Z,6.80
2022-11-05T01:55:36.129Z,6.70
2022-11-05T01:58:12.235Z,6.70
2022-11-05T02:00:44.600Z,6.70
2022-11-05T02:03:13.377Z,6.60
2022-11-05T02:05:42.077Z,6.60
2022-11-05T02:08:19.484Z,6.60
2022-11-05T02:10:55.195Z,6.60
2022-11-05T02:13:24.947Z,6.50
2022-11-05T02:15:58.719Z,6.50
2022-11-05T02:18:34.832Z,6.50
2022-11-05T02:21:04.292Z,6.40
2022-11-05T02:23:34.299Z,6.40
2022-11-05T02:26:27.277Z,6.40
2022-11-05T02:29:29.402Z,6.40
2022-11-05T02:32:13.164Z,6.30
2022-11-05T02:35:05.382Z,6.30
2022-11-05T02:37:42.407Z,6.30
2022-11-05T02:40:51.922Z,6.20
2022-11-05T02:43:30.874Z,6.20
2022-11-05T02:46:06.620Z,6.20
2022-11-05T02:48:39.589Z,6.20
2022-11-05T02:51:12.187Z,6.10
2022-11-05T02:53:47.946Z,6.10
2022-11-05T02:56:45.682Z,6.10
2022-11-05T02:59:15.820Z,6.10
2022-11-05T03:01:44.137Z,6.00
2022-11-05T03:04:12.149Z,6.00
2022-11-05T03:06:58.050Z,6.00
2022-11-05T03:09:48.533Z,6.00
2022-11-05T03:12:27.944Z,6.00
2022-11-05T03:15:21.431Z,5.90
2022-11-05T03:18:12.085Z,5.90
2022-11-05T03:20:49.555Z,5.90
2022-11-05T03:23:25.840Z,5.80
2022-11-05T03:26:24.194Z,5.90
2022-11-05T03:28:59.873Z,5.80
2022-11-05T03:31:37.744Z,5.80
2022-11-05T03:34:06.950Z,5.80
2022-11-05T03:36:41.395Z,5.80
2022-11-05T03:39:19.579Z,5.80
2022-11-05T03:42:23.622Z,5.80
2022-11-05T03:44:57.421Z,5.80
2022-11-05T03:47:33.149Z,5.80
2022-11-05T03:50:19.771Z,5.70
2022-11-05T03:52:58.763Z,5.80
2022-11-05T03:59:55.604Z,5.70
2022-11-05T04:02:26.611Z,5.80
2022-11-05T04:04:59.274Z,5.80
2022-11-05T04:07:48.117Z,5.80
2022-11-05T04:10:33.929Z,5.80
2022-11-05T04:13:25.724Z,5.80
2022-11-05T04:16:15.496Z,5.80
2022-11-05T04:18:50.480Z,5.80
2022-11-05T04:24:52.862Z,5.80
2022-11-05T04:27:27.982Z,5.90
2022-11-05T04:30:16.861Z,5.90
2022-11-05T04:33:12.094Z,6.00
2022-11-05T04:35:47.583Z,6.00
2022-11-05T04:38:28.853Z,6.10
2022-11-05T04:41:15.008Z,6.10
2022-11-05T04:43:56.026Z,6.10
2022-11-05T04:50:48.618Z,6.10
2022-11-05T04:58:03.647Z,6.00
2022-11-05T05:00:46.491Z,5.90
2022-11-05T05:03:17.156Z,5.90
2022-11-05T05:05:47.613Z,5.90
2022-11-05T05:15:45.124Z,5.90
2022-11-05T05:18:15.027Z,5.80
2022-11-05T05:21:07.603Z,5.80
2022-11-05T05:23:34.938Z,5.80
2022-11-05T05:26:04.695Z,5.80
2022-11-05T05:28:31.847Z,5.80
2022-11-05T05:31:02.961Z,5.80
2022-11-05T05:33:30.541Z,5.80
2022-11-05T05:35:57.964Z,5.80
2022-11-05T05:38:26.482Z,5.80
2022-11-05T05:40:57.931Z,5.80
2022-11-05T05:43:31.787Z,5.80
2022-11-05T05:48:57.018Z,5.80
2022-11-05T05:51:24.066Z,5.80
2022-11-05T05:53:51.175Z,5.80
2022-11-05T05:56:20.761Z,5.90
2022-11-05T05:58:48.209Z,5.90
2022-11-05T06:01:21.542Z,5.90
2022-11-05T06:03:50.195Z,5.90
2022-11-05T06:06:22.968Z,5.90
2022-11-05T06:08:55.152Z,5.90
2022-11-05T06:11:45.793Z,5.90
2022-11-05T06:14:36.570Z,5.90
2022-11-05T06:20:24.824Z,5.90
2022-11-05T06:23:14.893Z,5.90
2022-11-05T06:25:55.577Z,5.90
2022-11-05T06:28:42.286Z,5.90
2022-11-05T06:31:33.806Z,5.90
2022-11-05T06:34:10.285Z,5.90
2022-11-05T06:36:40.293Z,5.90
2022-11-05T06:39:13.273Z,5.80
2022-11-05T06:42:11.867Z,5.80
2022-11-05T06:44:48.517Z,5.80
2022-11-05T06:47:19.370Z,5.80
2022-11-05T06:49:57.273Z,5.80
2022-11-05T06:52:43.075Z,5.80
2022-11-05T06:55:51.043Z,5.80
2022-11-05T06:58:29.065Z,5.80
2022-11-05T07:01:32.023Z,5.80
2022-11-05T07:04:07.910Z,5.90
2022-11-05T07:06:37.109Z,5.90
2022-11-05T07:09:06.311Z,5.90
2022-11-05T07:11:43.687Z,5.90
2022-11-05T07:14:17.053Z,5.90
2022-11-05T07:16:57.978Z,5.90
2022-11-05T07:19:29.747Z,5.90
2022-11-05T07:21:59.645Z,5.90
2022-11-05T07:25:00.965Z,5.90
2022-11-05T07:27:45.059Z,6.00
2022-11-05T07:30:37.381Z,6.00
2022-11-05T07:33:06.200Z,6.00
2022-11-05T07:35:53.681Z,6.10
2022-11-05T07:38:21.049Z,6.10
2022-11-05T07:40:50.771Z,6.10
2022-11-05T07:43:17.667Z,6.10
2022-11-05T07:45:45.470Z,6.10
2022-11-05T07:48:12.842Z,6.20
2022-11-05T07:50:40.097Z,6.20
2022-11-05T07:53:42.424Z,6.20
2022-11-05T07:56:27.913Z,6.30
2022-11-05T08:38:20.280Z,6.90
2022-11-05T08:40:57.707Z,7.00
2022-11-05T08:50:55.825Z,7.10
2022-11-05T08:53:32.895Z,7.20
2022-11-05T08:56:00.858Z,7.20
2022-11-05T08:58:32.790Z,7.30
2022-11-05T09:01:25.515Z,7.30
2022-11-05T09:07:18.179Z,7.40
2022-11-05T09:11:16.099Z,7.40
2022-11-05T09:14:24.693Z,7.50
2022-11-05T09:20:37.125Z,7.70
2022-11-05T09:23:52.034Z,7.70
2022-11-05T09:26:24.934Z,7.70
2022-11-05T09:28:51.923Z,7.80
2022-11-05T09:31:21.813Z,7.90
2022-11-05T09:33:52.497Z,7.90
2022-11-05T09:36:20.032Z,7.90
2022-11-05T09:38:47.725Z,8.00
2022-11-05T09:41:23.978Z,8.00
2022-11-05T09:43:53.684Z,8.10
2022-11-05T09:46:23.420Z,8.10
2022-11-05T09:48:53.728Z,8.20
2022-11-05T09:51:24.159Z,8.20
2022-11-05T09:53:51.790Z,8.30
2022-11-05T09:56:28.307Z,8.40
2022-11-05T09:58:58.261Z,8.40
2022-11-05T10:01:31.085Z,8.50
2022-11-05T10:04:00.090Z,8.50
2022-11-05T10:06:29.699Z,8.60
2022-11-05T10:09:00.026Z,8.60
2022-11-05T10:11:33.152Z,8.70
2022-11-05T10:14:03.504Z,8.80
2022-11-05T10:16:35.669Z,8.80
2022-11-05T10:19:06.738Z,8.90
2022-11-05T10:22:04.426Z,8.90
2022-11-05T10:24:24.156Z,9.00
2022-11-05T10:26:52.632Z,9.10
2022-11-05T10:29:26.722Z,9.20
2022-11-05T10:31:54.923Z,9.30
2022-11-05T10:34:24.014Z,9.40
2022-11-05T10:36:51.048Z,9.40
2022-11-05T10:39:19.284Z,9.50
2022-11-05T10:41:55.423Z,9.60
2022-11-05T10:44:28.775Z,9.70
2022-11-05T10:47:10.747Z,9.90
2022-11-05T10:49:59.205Z,10.10
2022-11-05T10:52:36.822Z,10.30
2022-11-05T10:55:30.213Z,10.40
2022-11-05T10:58:10.964Z,10.50
2022-11-05T11:00:40.393Z,10.60
2022-11-05T11:03:27.621Z,10.70
2022-11-05T11:05:59.189Z,10.80
2022-11-05T11:08:26.363Z,10.80
2022-11-05T11:10:55.361Z,10.90
2022-11-05T11:13:28.384Z,10.90
2022-11-05T11:15:56.009Z,11.00
2022-11-05T11:18:37.335Z,11.10
2022-11-05T11:21:14.368Z,11.20
2022-11-05T11:23:44.872Z,11.20
2022-11-05T11:26:13.150Z,11.20
2022-11-05T11:28:43.625Z,11.20
2022-11-05T11:31:15.102Z,11.30
2022-11-05T11:33:43.236Z,11.30
2022-11-05T11:36:10.828Z,11.30
2022-11-05T11:38:38.196Z,11.40
2022-11-05T11:41:16.962Z,11.40
2022-11-05T11:43:54.368Z,11.40
2022-11-05T11:46:21.758Z,11.50
2022-11-05T11:48:49.980Z,11.50
2022-11-05T11:51:19.129Z,11.50
2022-11-05T11:53:47.992Z,11.50
2022-11-05T11:56:17.256Z,11.50
2022-11-05T11:58:51.430Z,11.60
2022-11-05T12:01:28.417Z,11.60
2022-11-05T12:03:57.960Z,11.60
2022-11-05T12:06:24.984Z,11.60
2022-11-05T12:09:06.431Z,11.60
2022-11-05T12:11:47.662Z,11.60
2022-11-05T12:14:30.801Z,11.60
2022-11-05T12:17:05.246Z,11.50
2022-11-05T12:19:53.890Z,11.50
2022-11-05T12:26:57.459Z,11.50
2022-11-05T12:29:48.557Z,11.50
2022-11-05T12:32:37.696Z,11.40
2022-11-05T12:35:13.989Z,11.50
2022-11-05T12:37:44.958Z,11.50
2022-11-05T12:40:22.608Z,11.50
2022-11-05T12:43:12.289Z,11.50
2022-11-05T12:45:48.533Z,11.60
2022-11-05T12:48:37.422Z,11.70
2022-11-05T12:51:20.110Z,11.70
2022-11-05T12:53:56.428Z,11.80
2022-11-05T12:56:30.120Z,11.80
2022-11-05T12:59:23.439Z,11.90
2022-11-05T13:01:53.685Z,11.80
2022-11-05T13:04:29.366Z,11.90
2022-11-05T13:06:57.462Z,11.80
2022-11-05T13:10:30.085Z,11.80
2022-11-05T13:13:20.090Z,11.80
2022-11-05T13:15:52.094Z,11.80
2022-11-05T13:18:24.019Z,11.90
2022-11-05T13:20:52.413Z,11.90
2022-11-05T13:23:19.446Z,11.90
2022-11-05T13:25:51.789Z,11.80
2022-11-05T13:28:46.985Z,11.80
2022-11-05T13:31:16.166Z,11.80
2022-11-05T13:33:44.317Z,11.90
2022-11-05T13:36:34.559Z,11.80
2022-11-05T13:39:20.269Z,11.80
2022-11-05T13:41:58.533Z,11.80
2022-11-05T13:44:28.628Z,11.80
2022-11-05T13:47:15.342Z,11.80
2022-11-05T13:49:43.924Z,11.80
2022-11-05T13:53:10.288Z,11.70
2022-11-05T13:55:37.551Z,11.70
2022-11-05T13:58:30.381Z,11.70
2022-11-05T14:01:16.163Z,11.70
2022-11-05T14:03:50.632Z,11.70
2022-11-05T14:06:30.153Z,11.70
2022-11-05T14:11:51.567Z,11.80
2022-11-05T14:14:22.005Z,11.80
2022-11-05T14:17:10.599Z,11.80
2022-11-05T14:24:34.334Z,11.80
2022-11-05T14:27:13.087Z,11.80
2022-11-05T14:30:16.667Z,11.70
2022-11-05T14:33:01.939Z,11.70
2022-11-05T14:35:48.882Z,11.70
2022-11-05T14:38:38.656Z,11.70
2022-11-05T14:41:07.013Z,11.70
2022-11-05T14:43:34.063Z,11.60
2022-11-05T14:46:07.707Z,11.60
2022-11-05T14:48:37.911Z,11.60
2022-11-05T14:51:23.783Z,11.60
2022-11-05T14:53:51.179Z,11.60
2022-11-05T14:56:19.153Z,11.50
2022-11-05T14:58:46.768Z,11.50
2022-11-05T15:01:13.860Z,11.40
2022-11-05T15:03:45.877Z,11.40
2022-11-05T15:06:24.529Z,11.30
2022-11-05T15:08:51.397Z,11.20
2022-11-05T15:11:20.377Z,11.20
2022-11-05T15:13:56.985Z,11.10
2022-11-05T15:16:33.069Z,11.10
2022-11-05T15:19:04.602Z,11.10
2022-11-05T15:21:33.491Z,11.10
2022-11-05T15:24:01.826Z,11.00
2022-11-05T15:26:31.813Z,11.00
2022-11-05T15:28:59.497Z,10.90
2022-11-05T15:31:29.364Z,10.90
2022-11-05T15:34:15.281Z,10.90
2022-11-05T15:37:13.471Z,10.90
2022-11-05T15:40:25.727Z,10.80
2022-11-05T15:46:33.965Z,10.80
2022-11-05T15:49:43.589Z,10.80
2022-11-05T15:52:11.937Z,10.70
2022-11-05T15:54:39.027Z,10.70
2022-11-05T15:57:13.484Z,10.70
2022-11-05T15:59:40.414Z,10.70
2022-11-05T16:02:23.281Z,10.70
2022-11-05T16:04:50.950Z,10.60
2022-11-05T16:07:18.500Z,10.60
2022-11-05T16:09:58.656Z,10.60
2022-11-05T16:12:50.394Z,10.60
2022-11-05T16:15:19.579Z,10.60
2022-11-05T16:17:49.612Z,10.60
2022-11-05T16:20:35.502Z,10.60
2022-11-05T16:23:07.174Z,10.60
2022-11-05T16:25:41.641Z,10.60
2022-11-05T16:28:22.537Z,10.60
2022-11-05T16:30:54.143Z,10.60
2022-11-05T16:33:24.549Z,10.60
2022-11-05T16:35:58.456Z,10.60
2022-11-05T16:38:25.821Z,10.60
2022-11-05T16:41:05.250Z,10.60
2022-11-05T16:43:34.743Z,10.60
2022-11-05T16:46:03.654Z,10.70
2022-11-05T16:48:36.192Z,10.70
2022-11-05T16:51:27.185Z,10.70
2022-11-05T16:53:54.524Z,10.70
2022-11-05T16:56:22.288Z,10.70
2022-11-05T16:58:49.951Z,10.70
2022-11-05T17:01:23.264Z,10.70
2022-11-05T17:03:58.750Z,10.70
2022-11-05T17:06:35.222Z,10.70
2022-11-05T17:09:05.337Z,10.70
2022-11-05T17:11:32.642Z,10.70
2022-11-05T17:14:02.030Z,10.70
2022-11-05T17:16:29.616Z,10.70
2022-11-05T17:18:57.221Z,10.70
2022-11-05T17:21:31.687Z,10.70
2022-11-05T17:24:02.204Z,10.70
2022-11-05T17:26:45.394Z,10.70
2022-11-05T17:29:34.388Z,10.70
2022-11-05T17:32:01.802Z,10.70
2022-11-05T17:34:28.704Z,10.70
2022-11-05T17:36:55.941Z,10.70
2022-11-05T17:39:28.679Z,10.70
2022-11-05T17:41:58.269Z,10.70
2022-11-05T17:44:25.275Z,10.70
2022-11-05T17:46:52.180Z,10.70
2022-11-05T17:49:19.100Z,10.70
2022-11-05T17:51:46.098Z,10.70
2022-11-05T17:54:16.137Z,10.70
2022-11-05T17:56:44.856Z,10.70
2022-11-05T17:59:12.234Z,10.70
2022-11-05T18:01:43.565Z,10.70
2022-11-05T18:04:13.285Z,10.70
2022-11-05T18:06:41.050Z,10.70
2022-11-05T18:09:46.016Z,10.70
2022-11-05T18:12:13.224Z,10.70
2022-11-05T18:14:40.210Z,10.70
2022-11-05T18:17:09.560Z,10.70
2022-11-05T18:19:38.900Z,10.70
2022-11-05T18:22:18.631Z,10.70
2022-11-05T18:24:52.709Z,10.70
2022-11-05T18:27:19.657Z,10.70
2022-11-05T18:29:51.120Z,10.70
2022-11-05T18:32:18.208Z,10.70
2022-11-05T18:34:47.618Z,10.70
2022-11-05T18:37:14.776Z,10.70
2022-11-05T18:40:39.003Z,10.70
2022-11-05T18:43:16.114Z,10.70
2022-11-05T18:46:57.146Z,10.70
2022-11-05T18:53:55.165Z,10.70
2022-11-05T18:57:08.321Z,10.60
2022-11-05T19:03:33.544Z,10.60
2022-11-05T19:06:16.314Z,10.60
2022-11-05T19:08:50.307Z,10.60
2022-11-05T19:11:19.546Z,10.50
2022-11-05T19:21:24.666Z,10.50
2022-11-05T19:24:05.567Z,10.60
2022-11-05T19:26:35.542Z,10.60
2022-11-05T19:29:03.976Z,10.60
2022-11-05T19:31:40.694Z,10.60
2022-11-05T19:34:08.260Z,10.60
2022-11-05T19:36:35.367Z,10.60
2022-11-05T19:39:04.247Z,10.60
2022-11-05T19:42:26.360Z,10.60
2022-11-05T19:45:55.477Z,10.60
2022-11-05T19:48:25.265Z,10.50
2022-11-05T19:50:53.442Z,10.60
2022-11-05T19:53:20.401Z,10.60
2022-11-05T19:55:47.433Z,10.50
2022-11-05T19:58:14.729Z,10.50
2022-11-05T20:01:14.240Z,10.50
2022-11-05T20:03:41.335Z,10.60
2022-11-05T20:06:09.974Z,10.50
2022-11-05T20:08:53.484Z,10.50
2022-11-05T20:11:24.990Z,10.50
2022-11-05T20:13:52.276Z,10.50
2022-11-05T20:16:21.125Z,10.40
2022-11-05T20:18:48.087Z,10.40
2022-11-05T20:21:15.358Z,10.40
2022-11-05T20:23:42.422Z,10.40
2022-11-05T20:26:10.474Z,10.40
2022-11-05T20:28:57.338Z,10.40
2022-11-05T20:31:40.010Z,10.40
2022-11-05T20:34:07.255Z,10.40
2022-11-05T20:36:34.128Z,10.40
2022-11-05T20:39:02.944Z,10.40
2022-11-05T20:41:31.130Z,10.40
2022-11-05T20:43:58.269Z,10.40
2022-11-05T20:46:25.255Z,10.50
2022-11-05T20:48:52.420Z,10.40
2022-11-05T20:51:20.668Z,10.40
2022-11-05T20:53:47.879Z,10.40
2022-11-05T21:03:57.563Z,10.30
2022-11-05T21:06:24.640Z,10.20
2022-11-05T21:09:22.800Z,10.20
2022-11-05T21:12:15.589Z,10.20
2022-11-05T21:14:45.924Z,10.20
2022-11-05T21:17:20.357Z,10.20
2022-11-05T21:19:52.405Z,10.20
2022-11-05T21:22:29.856Z,10.20
2022-11-05T21:25:00.128Z,10.20
2022-11-05T21:27:27.226Z,10.20
2022-11-05T21:30:32.499Z,10.20
2022-11-05T21:33:04.919Z,10.20
2022-11-05T21:35:33.916Z,10.20
2022-11-05T21:38:06.146Z,10.20
2022-11-05T21:40:35.869Z,10.20
2022-11-05T21:43:05.366Z,10.20
2022-11-05T21:50:22.410Z,10.20
2022-11-05T21:53:10.609Z,10.20
2022-11-05T22:00:06.030Z,10.20
2022-11-05T22:02:33.103Z,10.20
2022-11-05T22:05:00.577Z,10.20
2022-11-05T22:07:31.432Z,10.10
2022-11-05T22:10:14.645Z,10.10
2022-11-05T22:12:48.462Z,10.00
2022-11-05T22:15:15.653Z,9.90
2022-11-05T22:17:47.209Z,9.80
2022-11-05T22:20:20.106Z,9.80
2022-11-05T22:22:50.186Z,9.80
2022-11-05T22:25:19.959Z,9.80
2022-11-05T22:27:49.772Z,9.70
2022-11-05T22:30:17.077Z,9.70
2022-11-05T22:32:46.632Z,9.70
2022-11-05T22:35:13.693Z,9.70
2022-11-05T22:37:43.286Z,9.70
2022-11-05T22:40:13.519Z,9.70
2022-11-05T22:42:40.636Z,9.70
2022-11-05T22:45:13.655Z,9.70
2022-11-05T22:47:43.546Z,9.70
2022-11-05T22:50:10.444Z,9.70
2022-11-05T22:52:37.494Z,9.70
2022-11-05T22:55:06.356Z,9.70
2022-11-05T22:57:33.358Z,9.70
2022-11-05T23:00:06.287Z,9.70
2022-11-05T23:02:33.565Z,9.70
2022-11-05T23:05:03.270Z,9.70
2022-11-05T23:07:57.516Z,9.70
2022-11-05T23:10:45.768Z,9.80
2022-11-05T23:13:18.513Z,9.70
2022-11-05T23:23:37.175Z,9.60
2022-11-05T23:26:24.262Z,9.70
2022-11-05T23:28:51.315Z,9.60
2022-11-05T23:31:36.923Z,9.60
2022-11-05T23:34:03.945Z,9.60
2022-11-05T23:36:58.778Z,9.70
2022-11-05T23:39:25.858Z,9.70
2022-11-05T23:42:11.454Z,9.70
2022-11-05T23:44:59.493Z,9.70
2022-11-05T23:48:01.914Z,9.70
2022-11-05T23:50:29.751Z,9.60
2022-11-05T23:52:56.721Z,9.60
2022-11-05T23:55:24.256Z,9.70
2022-11-05T23:57:51.020Z,9.70
